sensor_id;sensor_type;location;lat;lon;timestamp;temperature;humidity
32097;DHT22;18610;49.916;8.284;2023-08-30T00:01:35;15.10;99.90
32097;DHT22;18610;49.916;8.284;2023-08-30T00:04:02;15.10;99.90
32097;DHT22;18610;49.916;8.284;2023-08-30T00:06:30;15.10;99.90
32097;DHT22;18610;49.916;8.284;2023-08-30T00:08:57;15.20;99.90
32097;DHT22;18610;49.916;8.284;2023-08-30T00:11:24;15.20;99.90
32097;DHT22;18610;49.916;8.284;2023-08-30T00:13:52;15.20;99.90
32097;DHT22;18610;49.916;8.284;2023-08-30T00:16:18;15.20;99.90
32097;DHT22;18610;49.916;8.284;2023-08-30T00:18:45;15.20;99.90
32097;DHT22;18610;49.916;8.284;2023-08-30T00:21:12;15.20;99.90
32097;DHT22;18610;49.916;8.284;2023-08-30T00:23:38;15.20;99.90
32097;DHT22;18610;49.916;8.284;2023-08-30T00:26:05;15.20;99.90
32097;DHT22;18610;49.916;8.284;2023-08-30T00:28:31;15.20;99.90
32097;DHT22;18610;49.916;8.284;2023-08-30T00:31:00;15.10;99.90
32097;DHT22;18610;49.916;8.284;2023-08-30T00:33:26;15.10;99.90
32097;DHT22;18610;49.916;8.284;2023-08-30T00:35:57;15.10;99.90
32097;DHT22;18610;49.916;8.284;2023-08-30T00:38:25;15.10;99.90
32097;DHT22;18610;49.916;8.284;2023-08-30T00:40:52;15.10;99.90
32097;DHT22;18610;49.916;8.284;2023-08-30T00:43:19;15.10;99.90
32097;DHT22;18610;49.916;8.284;2023-08-30T00:45:47;15.10;99.90
32097;DHT22;18610;49.916;8.284;2023-08-30T00:48:15;15.10;99.90
32097;DHT22;18610;49.916;8.284;2023-08-30T00:50:44;15.10;99.90
32097;DHT22;18610;49.916;8.284;2023-08-30T00:53:11;15.10;99.90
32097;DHT22;18610;49.916;8.284;2023-08-30T00:55:39;15.10;99.90
32097;DHT22;18610;49.916;8.284;2023-08-30T00:58:07;15.10;99.90
32097;DHT22;18610;49.916;8.284;2023-08-30T01:00:35;15.10;99.90
32097;DHT22;18610;49.916;8.284;2023-08-30T01:03:03;15.20;99.90
32097;DHT22;18610;49.916;8.284;2023-08-30T01:05:32;15.10;99.90
32097;DHT22;18610;49.916;8.284;2023-08-30T01:07:59;15.20;99.90
32097;DHT22;18610;49.916;8.284;2023-08-30T01:10:35;15.20;99.90
32097;DHT22;18610;49.916;8.284;2023-08-30T01:13:08;15.20;99.90
32097;DHT22;18610;49.916;8.284;2023-08-30T01:15:36;15.20;99.90
32097;DHT22;18610;49.916;8.284;2023-08-30T01:18:05;15.20;99.90
32097;DHT22;18610;49.916;8.284;2023-08-30T01:20:36;15.20;99.90
32097;DHT22;18610;49.916;8.284;2023-08-30T01:23:06;15.20;99.90
32097;DHT22;18610;49.916;8.284;2023-08-30T01:25:45;15.20;99.90
32097;DHT22;18610;49.916;8.284;2023-08-30T01:28:17;15.20;99.90
32097;DHT22;18610;49.916;8.284;2023-08-30T01:30:45;15.20;99.90
32097;DHT22;18610;49.916;8.284;2023-08-30T01:33:13;15.20;99.90
32097;DHT22;18610;49.916;8.284;2023-08-30T01:35:41;15.20;99.90
32097;DHT22;18610;49.916;8.284;2023-08-30T01:38:08;15.20;99.90
32097;DHT22;18610;49.916;8.284;2023-08-30T01:40:38;15.20;99.90
32097;DHT22;18610;49.916;8.284;2023-08-30T01:43:06;15.20;99.90
32097;DHT22;18610;49.916;8.284;2023-08-30T01:45:35;15.10;99.90
32097;DHT22;18610;49.916;8.284;2023-08-30T01:48:04;15.10;99.90
32097;DHT22;18610;49.916;8.284;2023-08-30T01:50:32;15.10;99.90
32097;DHT22;18610;49.916;8.284;2023-08-30T01:52:59;15.20;99.90
32097;DHT22;18610;49.916;8.284;2023-08-30T01:55:28;15.10;99.90
32097;DHT22;18610;49.916;8.284;2023-08-30T01:57:56;15.20;99.90
32097;DHT22;18610;49.916;8.284;2023-08-30T02:00:22;15.10;99.90
32097;DHT22;18610;49.916;8.284;2023-08-30T02:02:50;15.10;99.90
32097;DHT22;18610;49.916;8.284;2023-08-30T02:05:17;15.10;99.90
32097;DHT22;18610;49.916;8.284;2023-08-30T02:07:51;15.10;99.90
32097;DHT22;18610;49.916;8.284;2023-08-30T02:10:23;15.10;99.90
32097;DHT22;18610;49.916;8.284;2023-08-30T02:12:53;15.20;99.90
32097;DHT22;18610;49.916;8.284;2023-08-30T02:15:21;15.10;99.90
32097;DHT22;18610;49.916;8.284;2023-08-30T02:17:52;15.20;99.90
32097;DHT22;18610;49.916;8.284;2023-08-30T02:20:19;15.20;99.90
32097;DHT22;18610;49.916;8.284;2023-08-30T02:22:46;15.10;99.90
32097;DHT22;18610;49.916;8.284;2023-08-30T02:25:13;15.10;99.90
32097;DHT22;18610;49.916;8.284;2023-08-30T02:27:39;15.10;99.90
32097;DHT22;18610;49.916;8.284;2023-08-30T02:30:07;15.10;99.90
32097;DHT22;18610;49.916;8.284;2023-08-30T02:32:34;15.10;99.90
32097;DHT22;18610;49.916;8.284;2023-08-30T02:35:02;15.10;99.90
32097;DHT22;18610;49.916;8.284;2023-08-30T02:37:29;15.10;99.90
32097;DHT22;18610;49.916;8.284;2023-08-30T02:39:55;15.10;99.90
32097;DHT22;18610;49.916;8.284;2023-08-30T02:42:22;15.10;99.90
32097;DHT22;18610;49.916;8.284;2023-08-30T02:44:50;15.10;99.90
32097;DHT22;18610;49.916;8.284;2023-08-30T02:47:17;15.10;99.90
32097;DHT22;18610;49.916;8.284;2023-08-30T02:49:43;15.10;99.90
32097;DHT22;18610;49.916;8.284;2023-08-30T02:52:11;15.10;99.90
32097;DHT22;18610;49.916;8.284;2023-08-30T02:54:38;15.00;99.90
32097;DHT22;18610;49.916;8.284;2023-08-30T02:57:05;15.10;99.90
32097;DHT22;18610;49.916;8.284;2023-08-30T02:59:31;15.00;99.90
32097;DHT22;18610;49.916;8.284;2023-08-30T03:01:58;15.00;99.90
32097;DHT22;18610;49.916;8.284;2023-08-30T03:04:24;15.00;99.90
32097;DHT22;18610;49.916;8.284;2023-08-30T03:06:51;15.00;99.90
32097;DHT22;18610;49.916;8.284;2023-08-30T03:09:19;15.00;99.90
32097;DHT22;18610;49.916;8.284;2023-08-30T03:11:46;14.90;99.90
32097;DHT22;18610;49.916;8.284;2023-08-30T03:14:13;14.90;99.90
32097;DHT22;18610;49.916;8.284;2023-08-30T03:16:41;14.90;99.90
32097;DHT22;18610;49.916;8.284;2023-08-30T03:19:10;14.90;99.90
32097;DHT22;18610;49.916;8.284;2023-08-30T03:21:37;14.80;99.90
32097;DHT22;18610;49.916;8.284;2023-08-30T03:24:04;14.80;99.90
32097;DHT22;18610;49.916;8.284;2023-08-30T03:26:32;14.80;99.90
32097;DHT22;18610;49.916;8.284;2023-08-30T03:28:59;14.80;99.90
32097;DHT22;18610;49.916;8.284;2023-08-30T03:31:25;14.80;99.90
32097;DHT22;18610;49.916;8.284;2023-08-30T03:33:52;14.80;99.90
32097;DHT22;18610;49.916;8.284;2023-08-30T03:36:19;14.80;99.90
32097;DHT22;18610;49.916;8.284;2023-08-30T03:38:46;14.70;99.90
32097;DHT22;18610;49.916;8.284;2023-08-30T03:41:13;14.70;99.90
32097;DHT22;18610;49.916;8.284;2023-08-30T03:43:41;14.70;99.90
32097;DHT22;18610;49.916;8.284;2023-08-30T03:46:08;14.70;99.90
32097;DHT22;18610;49.916;8.284;2023-08-30T03:48:37;14.70;99.90
32097;DHT22;18610;49.916;8.284;2023-08-30T03:51:03;14.70;99.90
32097;DHT22;18610;49.916;8.284;2023-08-30T03:53:30;14.70;99.90
32097;DHT22;18610;49.916;8.284;2023-08-30T03:55:57;14.70;99.90
32097;DHT22;18610;49.916;8.284;2023-08-30T03:58:24;14.70;99.90
32097;DHT22;18610;49.916;8.284;2023-08-30T04:00:52;14.80;99.90
32097;DHT22;18610;49.916;8.284;2023-08-30T04:03:19;14.80;99.90
32097;DHT22;18610;49.916;8.284;2023-08-30T04:05:46;14.80;99.90
32097;DHT22;18610;49.916;8.284;2023-08-30T04:08:12;14.80;99.90
32097;DHT22;18610;49.916;8.284;2023-08-30T04:10:41;14.80;99.90
32097;DHT22;18610;49.916;8.284;2023-08-30T04:13:09;14.80;99.90
32097;DHT22;18610;49.916;8.284;2023-08-30T04:15:38;14.70;99.90
32097;DHT22;18610;49.916;8.284;2023-08-30T04:18:07;14.70;99.90
32097;DHT22;18610;49.916;8.284;2023-08-30T04:20:34;14.70;99.90
32097;DHT22;18610;49.916;8.284;2023-08-30T04:23:01;14.70;99.90
32097;DHT22;18610;49.916;8.284;2023-08-30T04:25:28;14.70;99.90
32097;DHT22;18610;49.916;8.284;2023-08-30T04:27:55;14.60;99.90
32097;DHT22;18610;49.916;8.284;2023-08-30T04:30:21;14.70;99.90
32097;DHT22;18610;49.916;8.284;2023-08-30T04:32:48;14.60;99.90
32097;DHT22;18610;49.916;8.284;2023-08-30T04:35:16;14.60;99.90
32097;DHT22;18610;49.916;8.284;2023-08-30T04:37:43;14.60;99.90
32097;DHT22;18610;49.916;8.284;2023-08-30T04:40:10;14.50;99.90
32097;DHT22;18610;49.916;8.284;2023-08-30T04:42:37;14.50;99.90
32097;DHT22;18610;49.916;8.284;2023-08-30T04:45:05;14.50;99.90
32097;DHT22;18610;49.916;8.284;2023-08-30T04:47:33;14.50;99.90
32097;DHT22;18610;49.916;8.284;2023-08-30T04:50:00;14.50;99.90
32097;DHT22;18610;49.916;8.284;2023-08-30T04:52:28;14.40;99.90
32097;DHT22;18610;49.916;8.284;2023-08-30T04:54:54;14.40;99.90
32097;DHT22;18610;49.916;8.284;2023-08-30T04:57:21;14.40;99.90
32097;DHT22;18610;49.916;8.284;2023-08-30T04:59:48;14.40;99.90
32097;DHT22;18610;49.916;8.284;2023-08-30T05:02:15;14.40;99.90
32097;DHT22;18610;49.916;8.284;2023-08-30T05:04:41;14.40;99.90
32097;DHT22;18610;49.916;8.284;2023-08-30T05:07:08;14.30;99.90
32097;DHT22;18610;49.916;8.284;2023-08-30T05:09:36;14.30;99.90
32097;DHT22;18610;49.916;8.284;2023-08-30T05:12:06;14.20;99.90
32097;DHT22;18610;49.916;8.284;2023-08-30T05:14:33;14.20;99.90
32097;DHT22;18610;49.916;8.284;2023-08-30T05:16:59;14.20;99.90
32097;DHT22;18610;49.916;8.284;2023-08-30T05:19:26;14.20;99.90
32097;DHT22;18610;49.916;8.284;2023-08-30T05:21:53;14.20;99.90
32097;DHT22;18610;49.916;8.284;2023-08-30T05:24:20;14.20;99.90
32097;DHT22;18610;49.916;8.284;2023-08-30T05:26:48;14.30;99.90
32097;DHT22;18610;49.916;8.284;2023-08-30T05:29:15;14.30;99.90
32097;DHT22;18610;49.916;8.284;2023-08-30T05:31:42;14.40;99.90
32097;DHT22;18610;49.916;8.284;2023-08-30T05:34:09;14.40;99.90
32097;DHT22;18610;49.916;8.284;2023-08-30T05:36:36;14.40;99.90
32097;DHT22;18610;49.916;8.284;2023-08-30T05:39:03;14.40;99.90
32097;DHT22;18610;49.916;8.284;2023-08-30T05:41:30;14.50;99.90
32097;DHT22;18610;49.916;8.284;2023-08-30T05:43:58;14.50;99.90
32097;DHT22;18610;49.916;8.284;2023-08-30T05:46:24;14.50;99.90
32097;DHT22;18610;49.916;8.284;2023-08-30T05:48:51;14.60;99.90
32097;DHT22;18610;49.916;8.284;2023-08-30T05:51:19;14.60;99.90
32097;DHT22;18610;49.916;8.284;2023-08-30T05:53:46;14.60;99.90
32097;DHT22;18610;49.916;8.284;2023-08-30T05:56:13;14.70;99.90
32097;DHT22;18610;49.916;8.284;2023-08-30T05:58:39;14.70;99.90
32097;DHT22;18610;49.916;8.284;2023-08-30T06:01:07;14.80;99.90
32097;DHT22;18610;49.916;8.284;2023-08-30T06:03:34;14.80;99.90
32097;DHT22;18610;49.916;8.284;2023-08-30T06:06:01;14.80;99.90
32097;DHT22;18610;49.916;8.284;2023-08-30T06:08:28;14.80;99.90
32097;DHT22;18610;49.916;8.284;2023-08-30T06:10:55;14.90;99.90
32097;DHT22;18610;49.916;8.284;2023-08-30T06:13:22;15.00;99.90
32097;DHT22;18610;49.916;8.284;2023-08-30T06:15:50;15.10;99.90
32097;DHT22;18610;49.916;8.284;2023-08-30T06:18:19;15.20;99.90
32097;DHT22;18610;49.916;8.284;2023-08-30T06:20:45;15.20;99.90
32097;DHT22;18610;49.916;8.284;2023-08-30T06:23:14;15.30;99.90
32097;DHT22;18610;49.916;8.284;2023-08-30T06:25:41;15.30;99.90
32097;DHT22;18610;49.916;8.284;2023-08-30T06:28:08;15.40;99.90
32097;DHT22;18610;49.916;8.284;2023-08-30T06:30:34;15.40;99.90
32097;DHT22;18610;49.916;8.284;2023-08-30T06:33:01;15.50;99.90
32097;DHT22;18610;49.916;8.284;2023-08-30T06:35:29;15.50;99.90
32097;DHT22;18610;49.916;8.284;2023-08-30T06:37:56;15.60;99.90
32097;DHT22;18610;49.916;8.284;2023-08-30T06:40:22;15.60;99.90
32097;DHT22;18610;49.916;8.284;2023-08-30T06:42:49;15.60;99.90
32097;DHT22;18610;49.916;8.284;2023-08-30T06:45:16;15.70;99.90
32097;DHT22;18610;49.916;8.284;2023-08-30T06:47:42;15.70;99.90
32097;DHT22;18610;49.916;8.284;2023-08-30T06:50:09;15.80;99.90
32097;DHT22;18610;49.916;8.284;2023-08-30T06:52:37;15.90;99.90
32097;DHT22;18610;49.916;8.284;2023-08-30T06:55:04;16.00;99.90
32097;DHT22;18610;49.916;8.284;2023-08-30T06:57:31;16.10;99.90
32097;DHT22;18610;49.916;8.284;2023-08-30T06:59:58;16.20;99.90
32097;DHT22;18610;49.916;8.284;2023-08-30T07:02:33;16.30;99.90
32097;DHT22;18610;49.916;8.284;2023-08-30T07:04:59;16.40;99.90
32097;DHT22;18610;49.916;8.284;2023-08-30T07:07:26;16.50;99.90
32097;DHT22;18610;49.916;8.284;2023-08-30T07:09:55;16.60;99.90
32097;DHT22;18610;49.916;8.284;2023-08-30T07:12:21;16.70;99.90
32097;DHT22;18610;49.916;8.284;2023-08-30T07:14:48;16.80;99.90
32097;DHT22;18610;49.916;8.284;2023-08-30T07:17:15;16.80;99.90
32097;DHT22;18610;49.916;8.284;2023-08-30T07:19:42;16.90;99.90
32097;DHT22;18610;49.916;8.284;2023-08-30T07:22:08;17.00;99.90
32097;DHT22;18610;49.916;8.284;2023-08-30T07:24:36;17.00;99.90
32097;DHT22;18610;49.916;8.284;2023-08-30T07:27:04;17.20;99.90
32097;DHT22;18610;49.916;8.284;2023-08-30T07:29:32;17.30;99.90
32097;DHT22;18610;49.916;8.284;2023-08-30T07:31:59;17.50;99.90
32097;DHT22;18610;49.916;8.284;2023-08-30T07:34:25;17.60;99.90
32097;DHT22;18610;49.916;8.284;2023-08-30T07:36:54;17.70;99.90
32097;DHT22;18610;49.916;8.284;2023-08-30T07:39:21;17.90;99.90
32097;DHT22;18610;49.916;8.284;2023-08-30T07:41:48;18.10;99.90
32097;DHT22;18610;49.916;8.284;2023-08-30T07:44:16;18.20;99.90
32097;DHT22;18610;49.916;8.284;2023-08-30T07:46:45;18.30;99.90
32097;DHT22;18610;49.916;8.284;2023-08-30T07:49:12;18.30;99.90
32097;DHT22;18610;49.916;8.284;2023-08-30T07:51:38;18.30;99.90
32097;DHT22;18610;49.916;8.284;2023-08-30T07:54:05;18.30;99.90
32097;DHT22;18610;49.916;8.284;2023-08-30T07:56:32;18.30;99.90
32097;DHT22;18610;49.916;8.284;2023-08-30T07:58:58;18.20;99.90
32097;DHT22;18610;49.916;8.284;2023-08-30T08:01:26;18.30;99.90
32097;DHT22;18610;49.916;8.284;2023-08-30T08:03:53;18.30;99.90
32097;DHT22;18610;49.916;8.284;2023-08-30T08:06:20;18.30;99.90
32097;DHT22;18610;49.916;8.284;2023-08-30T08:08:46;18.30;99.90
32097;DHT22;18610;49.916;8.284;2023-08-30T08:11:13;18.30;99.90
32097;DHT22;18610;49.916;8.284;2023-08-30T08:13:41;18.20;99.90
32097;DHT22;18610;49.916;8.284;2023-08-30T08:16:07;18.30;99.90
32097;DHT22;18610;49.916;8.284;2023-08-30T08:18:35;18.10;99.90
32097;DHT22;18610;49.916;8.284;2023-08-30T08:21:02;18.20;99.90
32097;DHT22;18610;49.916;8.284;2023-08-30T08:23:29;18.20;99.90
32097;DHT22;18610;49.916;8.284;2023-08-30T08:25:59;18.20;99.90
32097;DHT22;18610;49.916;8.284;2023-08-30T08:28:26;18.20;99.90
32097;DHT22;18610;49.916;8.284;2023-08-30T08:30:53;18.20;99.90
32097;DHT22;18610;49.916;8.284;2023-08-30T08:33:20;18.30;99.90
32097;DHT22;18610;49.916;8.284;2023-08-30T08:35:49;18.50;99.90
32097;DHT22;18610;49.916;8.284;2023-08-30T08:38:16;18.60;99.90
32097;DHT22;18610;49.916;8.284;2023-08-30T08:40:43;18.80;99.90
32097;DHT22;18610;49.916;8.284;2023-08-30T08:43:10;18.90;99.90
32097;DHT22;18610;49.916;8.284;2023-08-30T08:45:38;19.10;99.90
32097;DHT22;18610;49.916;8.284;2023-08-30T08:48:05;19.00;99.90
32097;DHT22;18610;49.916;8.284;2023-08-30T08:50:32;19.00;99.90
32097;DHT22;18610;49.916;8.284;2023-08-30T08:53:02;19.10;99.90
32097;DHT22;18610;49.916;8.284;2023-08-30T08:55:29;19.10;99.90
32097;DHT22;18610;49.916;8.284;2023-08-30T08:57:57;19.20;99.90
32097;DHT22;18610;49.916;8.284;2023-08-30T09:00:24;19.30;99.90
32097;DHT22;18610;49.916;8.284;2023-08-30T09:02:51;19.30;99.90
32097;DHT22;18610;49.916;8.284;2023-08-30T09:05:20;19.40;99.90
32097;DHT22;18610;49.916;8.284;2023-08-30T09:07:47;19.50;99.90
32097;DHT22;18610;49.916;8.284;2023-08-30T09:10:15;19.60;99.90
32097;DHT22;18610;49.916;8.284;2023-08-30T09:12:42;19.70;99.90
32097;DHT22;18610;49.916;8.284;2023-08-30T09:15:09;19.90;99.90
32097;DHT22;18610;49.916;8.284;2023-08-30T09:17:36;20.00;99.90
32097;DHT22;18610;49.916;8.284;2023-08-30T09:20:07;20.30;99.90
32097;DHT22;18610;49.916;8.284;2023-08-30T09:22:38;20.40;99.90
32097;DHT22;18610;49.916;8.284;2023-08-30T09:25:06;20.60;99.90
32097;DHT22;18610;49.916;8.284;2023-08-30T09:27:36;20.80;99.90
32097;DHT22;18610;49.916;8.284;2023-08-30T09:30:07;21.00;99.90
32097;DHT22;18610;49.916;8.284;2023-08-30T09:32:39;21.30;99.90
32097;DHT22;18610;49.916;8.284;2023-08-30T09:35:07;21.30;99.90
32097;DHT22;18610;49.916;8.284;2023-08-30T09:37:34;21.40;99.90
32097;DHT22;18610;49.916;8.284;2023-08-30T09:40:01;21.40;99.90
32097;DHT22;18610;49.916;8.284;2023-08-30T09:42:28;21.50;99.90
32097;DHT22;18610;49.916;8.284;2023-08-30T09:44:57;21.50;99.90
32097;DHT22;18610;49.916;8.284;2023-08-30T09:47:24;21.80;99.90
32097;DHT22;18610;49.916;8.284;2023-08-30T09:49:54;21.90;99.90
32097;DHT22;18610;49.916;8.284;2023-08-30T09:52:23;22.00;99.90
32097;DHT22;18610;49.916;8.284;2023-08-30T09:54:51;22.20;99.90
32097;DHT22;18610;49.916;8.284;2023-08-30T09:57:18;22.30;99.90
32097;DHT22;18610;49.916;8.284;2023-08-30T09:59:46;22.50;99.90
32097;DHT22;18610;49.916;8.284;2023-08-30T10:02:15;22.80;99.90
32097;DHT22;18610;49.916;8.284;2023-08-30T10:04:44;23.00;99.90
32097;DHT22;18610;49.916;8.284;2023-08-30T10:07:11;23.00;99.30
32097;DHT22;18610;49.916;8.284;2023-08-30T10:09:38;23.20;99.80
32097;DHT22;18610;49.916;8.284;2023-08-30T10:12:06;23.50;98.40
32097;DHT22;18610;49.916;8.284;2023-08-30T10:14:33;23.20;99.00
32097;DHT22;18610;49.916;8.284;2023-08-30T10:17:02;23.00;99.20
32097;DHT22;18610;49.916;8.284;2023-08-30T10:19:31;23.20;99.10
32097;DHT22;18610;49.916;8.284;2023-08-30T10:22:01;23.10;98.40
32097;DHT22;18610;49.916;8.284;2023-08-30T10:24:30;23.30;98.10
32097;DHT22;18610;49.916;8.284;2023-08-30T10:26:58;23.40;98.00
32097;DHT22;18610;49.916;8.284;2023-08-30T10:29:27;23.40;96.50
32097;DHT22;18610;49.916;8.284;2023-08-30T10:31:55;23.00;96.50
32097;DHT22;18610;49.916;8.284;2023-08-30T10:34:21;22.70;96.90
32097;DHT22;18610;49.916;8.284;2023-08-30T10:36:59;22.60;97.10
32097;DHT22;18610;49.916;8.284;2023-08-30T10:39:33;22.40;97.50
32097;DHT22;18610;49.916;8.284;2023-08-30T10:42:01;22.10;98.30
32097;DHT22;18610;49.916;8.284;2023-08-30T10:44:27;21.80;98.40
32097;DHT22;18610;49.916;8.284;2023-08-30T10:46:55;22.00;98.30
32097;DHT22;18610;49.916;8.284;2023-08-30T10:49:22;22.40;98.20
32097;DHT22;18610;49.916;8.284;2023-08-30T10:51:57;22.60;96.90
32097;DHT22;18610;49.916;8.284;2023-08-30T10:54:37;22.60;95.60
32097;DHT22;18610;49.916;8.284;2023-08-30T10:57:04;22.90;95.50
32097;DHT22;18610;49.916;8.284;2023-08-30T10:59:31;22.90;95.20
32097;DHT22;18610;49.916;8.284;2023-08-30T11:02:01;22.90;94.60
32097;DHT22;18610;49.916;8.284;2023-08-30T11:04:29;23.00;95.00
32097;DHT22;18610;49.916;8.284;2023-08-30T11:06:57;23.40;94.30
32097;DHT22;18610;49.916;8.284;2023-08-30T11:09:24;23.80;93.50
32097;DHT22;18610;49.916;8.284;2023-08-30T11:11:52;24.00;92.30
32097;DHT22;18610;49.916;8.284;2023-08-30T11:14:18;24.10;91.90
32097;DHT22;18610;49.916;8.284;2023-08-30T11:16:45;24.20;90.90
32097;DHT22;18610;49.916;8.284;2023-08-30T11:19:12;24.10;91.20
32097;DHT22;18610;49.916;8.284;2023-08-30T11:21:39;24.10;91.20
32097;DHT22;18610;49.916;8.284;2023-08-30T11:24:08;24.40;91.90
32097;DHT22;18610;49.916;8.284;2023-08-30T11:26:35;24.80;91.00
32097;DHT22;18610;49.916;8.284;2023-08-30T11:29:05;25.10;90.00
32097;DHT22;18610;49.916;8.284;2023-08-30T11:31:32;25.20;90.10
32097;DHT22;18610;49.916;8.284;2023-08-30T11:33:59;25.30;88.50
32097;DHT22;18610;49.916;8.284;2023-08-30T11:36:27;25.30;87.60
32097;DHT22;18610;49.916;8.284;2023-08-30T11:38:55;25.40;87.50
32097;DHT22;18610;49.916;8.284;2023-08-30T11:41:24;25.30;82.70
32097;DHT22;18610;49.916;8.284;2023-08-30T11:43:51;25.10;83.50
32097;DHT22;18610;49.916;8.284;2023-08-30T11:46:18;25.00;81.40
32097;DHT22;18610;49.916;8.284;2023-08-30T11:48:46;25.10;78.40
32097;DHT22;18610;49.916;8.284;2023-08-30T11:51:14;25.30;78.00
32097;DHT22;18610;49.916;8.284;2023-08-30T11:53:40;25.30;77.20
32097;DHT22;18610;49.916;8.284;2023-08-30T11:56:08;25.40;77.50
32097;DHT22;18610;49.916;8.284;2023-08-30T11:58:36;25.60;76.50
32097;DHT22;18610;49.916;8.284;2023-08-30T12:01:03;25.60;74.90
32097;DHT22;18610;49.916;8.284;2023-08-30T12:03:31;25.70;76.60
32097;DHT22;18610;49.916;8.284;2023-08-30T12:05:58;25.80;77.70
32097;DHT22;18610;49.916;8.284;2023-08-30T12:08:26;25.80;75.90
32097;DHT22;18610;49.916;8.284;2023-08-30T12:10:54;25.80;75.30
32097;DHT22;18610;49.916;8.284;2023-08-30T12:13:22;25.80;74.10
32097;DHT22;18610;49.916;8.284;2023-08-30T12:15:50;25.90;72.30
32097;DHT22;18610;49.916;8.284;2023-08-30T12:18:20;25.90;69.80
32097;DHT22;18610;49.916;8.284;2023-08-30T12:20:52;25.90;69.10
32097;DHT22;18610;49.916;8.284;2023-08-30T12:23:22;25.70;70.20
32097;DHT22;18610;49.916;8.284;2023-08-30T12:25:59;25.40;68.50
32097;DHT22;18610;49.916;8.284;2023-08-30T12:28:26;25.20;69.30
32097;DHT22;18610;49.916;8.284;2023-08-30T12:30:55;25.20;70.50
32097;DHT22;18610;49.916;8.284;2023-08-30T12:33:22;25.20;68.10
32097;DHT22;18610;49.916;8.284;2023-08-30T12:35:50;24.90;70.80
32097;DHT22;18610;49.916;8.284;2023-08-30T12:38:17;25.00;70.30
32097;DHT22;18610;49.916;8.284;2023-08-30T12:40:45;25.20;70.80
32097;DHT22;18610;49.916;8.284;2023-08-30T12:43:11;25.20;71.30
32097;DHT22;18610;49.916;8.284;2023-08-30T12:45:39;25.50;69.10
32097;DHT22;18610;49.916;8.284;2023-08-30T12:48:07;25.50;69.60
32097;DHT22;18610;49.916;8.284;2023-08-30T12:50:35;25.70;68.90
32097;DHT22;18610;49.916;8.284;2023-08-30T12:53:02;25.70;68.20
32097;DHT22;18610;49.916;8.284;2023-08-30T12:55:29;25.80;65.20
32097;DHT22;18610;49.916;8.284;2023-08-30T12:57:56;25.90;66.70
32097;DHT22;18610;49.916;8.284;2023-08-30T13:00:23;26.10;66.00
32097;DHT22;18610;49.916;8.284;2023-08-30T13:02:49;26.20;67.10
32097;DHT22;18610;49.916;8.284;2023-08-30T13:05:18;26.50;66.10
32097;DHT22;18610;49.916;8.284;2023-08-30T13:07:45;26.60;66.40
32097;DHT22;18610;49.916;8.284;2023-08-30T13:10:12;26.60;63.30
32097;DHT22;18610;49.916;8.284;2023-08-30T13:12:39;26.50;62.20
32097;DHT22;18610;49.916;8.284;2023-08-30T13:15:07;26.40;63.70
32097;DHT22;18610;49.916;8.284;2023-08-30T13:17:34;26.10;63.50
32097;DHT22;18610;49.916;8.284;2023-08-30T13:20:01;25.60;64.60
32097;DHT22;18610;49.916;8.284;2023-08-30T13:22:29;25.50;66.40
32097;DHT22;18610;49.916;8.284;2023-08-30T13:24:56;25.60;66.90
32097;DHT22;18610;49.916;8.284;2023-08-30T13:27:23;25.60;65.90
32097;DHT22;18610;49.916;8.284;2023-08-30T13:29:49;25.40;66.50
32097;DHT22;18610;49.916;8.284;2023-08-30T13:32:16;25.20;68.40
32097;DHT22;18610;49.916;8.284;2023-08-30T13:34:43;25.00;69.40
32097;DHT22;18610;49.916;8.284;2023-08-30T13:37:11;24.80;71.10
32097;DHT22;18610;49.916;8.284;2023-08-30T13:39:40;24.60;71.20
32097;DHT22;18610;49.916;8.284;2023-08-30T13:42:06;24.20;71.40
32097;DHT22;18610;49.916;8.284;2023-08-30T13:44:33;24.00;72.20
32097;DHT22;18610;49.916;8.284;2023-08-30T13:47:01;23.70;74.30
32097;DHT22;18610;49.916;8.284;2023-08-30T13:49:28;23.60;74.30
32097;DHT22;18610;49.916;8.284;2023-08-30T13:51:55;23.40;75.70
32097;DHT22;18610;49.916;8.284;2023-08-30T13:54:21;23.20;74.90
32097;DHT22;18610;49.916;8.284;2023-08-30T13:56:50;22.90;76.70
32097;DHT22;18610;49.916;8.284;2023-08-30T13:59:16;22.80;77.50
32097;DHT22;18610;49.916;8.284;2023-08-30T14:01:43;22.60;79.80
32097;DHT22;18610;49.916;8.284;2023-08-30T14:04:10;22.50;79.80
32097;DHT22;18610;49.916;8.284;2023-08-30T14:06:36;22.50;80.40
32097;DHT22;18610;49.916;8.284;2023-08-30T14:09:03;22.50;79.60
32097;DHT22;18610;49.916;8.284;2023-08-30T14:11:33;22.40;80.00
32097;DHT22;18610;49.916;8.284;2023-08-30T14:14:02;22.40;81.20
32097;DHT22;18610;49.916;8.284;2023-08-30T14:16:29;22.30;80.30
32097;DHT22;18610;49.916;8.284;2023-08-30T14:18:55;22.30;81.10
32097;DHT22;18610;49.916;8.284;2023-08-30T14:21:25;22.40;81.30
32097;DHT22;18610;49.916;8.284;2023-08-30T14:23:52;22.30;82.60
32097;DHT22;18610;49.916;8.284;2023-08-30T14:26:18;22.40;83.20
32097;DHT22;18610;49.916;8.284;2023-08-30T14:28:45;22.50;84.00
32097;DHT22;18610;49.916;8.284;2023-08-30T14:31:13;22.50;83.10
32097;DHT22;18610;49.916;8.284;2023-08-30T14:33:43;22.50;81.50
32097;DHT22;18610;49.916;8.284;2023-08-30T14:36:11;22.50;81.80
32097;DHT22;18610;49.916;8.284;2023-08-30T14:38:38;22.50;81.80
32097;DHT22;18610;49.916;8.284;2023-08-30T14:41:06;22.50;82.50
32097;DHT22;18610;49.916;8.284;2023-08-30T14:43:32;22.50;83.00
32097;DHT22;18610;49.916;8.284;2023-08-30T14:46:00;22.60;83.60
32097;DHT22;18610;49.916;8.284;2023-08-30T14:48:28;22.70;83.30
32097;DHT22;18610;49.916;8.284;2023-08-30T14:50:57;22.80;82.30
32097;DHT22;18610;49.916;8.284;2023-08-30T14:53:23;23.00;79.30
32097;DHT22;18610;49.916;8.284;2023-08-30T14:55:50;22.90;79.20
32097;DHT22;18610;49.916;8.284;2023-08-30T14:58:17;22.90;79.80
32097;DHT22;18610;49.916;8.284;2023-08-30T15:00:44;22.70;80.90
32097;DHT22;18610;49.916;8.284;2023-08-30T15:03:13;22.60;80.80
32097;DHT22;18610;49.916;8.284;2023-08-30T15:05:41;22.40;81.00
32097;DHT22;18610;49.916;8.284;2023-08-30T15:08:07;22.30;82.70
32097;DHT22;18610;49.916;8.284;2023-08-30T15:10:34;22.20;82.40
32097;DHT22;18610;49.916;8.284;2023-08-30T15:13:01;22.20;83.40
32097;DHT22;18610;49.916;8.284;2023-08-30T15:15:27;22.10;82.00
32097;DHT22;18610;49.916;8.284;2023-08-30T15:17:55;22.10;82.00
32097;DHT22;18610;49.916;8.284;2023-08-30T15:20:22;22.00;82.40
32097;DHT22;18610;49.916;8.284;2023-08-30T15:22:50;22.00;82.30
32097;DHT22;18610;49.916;8.284;2023-08-30T15:25:17;22.00;81.50
32097;DHT22;18610;49.916;8.284;2023-08-30T15:27:44;21.90;82.90
32097;DHT22;18610;49.916;8.284;2023-08-30T15:30:12;21.80;83.40
32097;DHT22;18610;49.916;8.284;2023-08-30T15:32:39;21.80;83.70